KLM31A VRMG-FJDG
Flight info
| Callsign | KLM31A |
|---|---|
| Flight time | 1h 1m |
| Altitude | 36000 |
| Route | RUGBI R329 MOMMA |
| Aircraft | B738/M-SABDFGLRWVY/LB1 |
Departure
| Time | 2026-05-07 12:21 |
|---|---|
| Airport | Gan International Airport (VRMG) |
Arrival
| Time | 2026-05-07 13:23 |
|---|---|
| Airport | Naval Support Facility Diego Garcia (FJDG) |
| Time | Latitude | Longitude | Altitude | Speed | Heading |
|---|---|---|---|---|---|
| 2026-05-07 11:54 | -0.69092 | 73.15697 | 15 ft | 0 kts | 11° |
| 2026-05-07 12:10 | -0.69106 | 73.15694 | 15 ft | 2 kts | 11° |
| 2026-05-07 12:10 | -0.69120 | 73.15690 | 15 ft | 2 kts | 29° |
| 2026-05-07 12:11 | -0.69132 | 73.15681 | 15 ft | 2 kts | 44° |
| 2026-05-07 12:11 | -0.69142 | 73.15670 | 15 ft | 2 kts | 61° |
| 2026-05-07 12:11 | -0.69147 | 73.15656 | 15 ft | 2 kts | 77° |
| 2026-05-07 12:11 | -0.69149 | 73.15642 | 15 ft | 2 kts | 94° |
| 2026-05-07 12:12 | -0.69148 | 73.15634 | 15 ft | 1 kts | 102° |
| 2026-05-07 12:12 | -0.69147 | 73.15631 | 15 ft | 0 kts | 100° |
| 2026-05-07 12:14 | -0.69148 | 73.15633 | 15 ft | 0 kts | 100° |
| 2026-05-07 12:14 | -0.69150 | 73.15645 | 15 ft | 2 kts | 100° |
| 2026-05-07 12:14 | -0.69154 | 73.15667 | 15 ft | 3 kts | 100° |
| 2026-05-07 12:15 | -0.69159 | 73.15698 | 15 ft | 4 kts | 99° |
| 2026-05-07 12:15 | -0.69165 | 73.15732 | 15 ft | 5 kts | 99° |
| 2026-05-07 12:15 | -0.69171 | 73.15769 | 15 ft | 5 kts | 98° |
| 2026-05-07 12:15 | -0.69177 | 73.15808 | 15 ft | 5 kts | 98° |
| 2026-05-07 12:16 | -0.69183 | 73.15850 | 15 ft | 6 kts | 98° |
| 2026-05-07 12:16 | -0.69190 | 73.15893 | 15 ft | 6 kts | 99° |
| 2026-05-07 12:16 | -0.69197 | 73.15932 | 15 ft | 5 kts | 99° |
| 2026-05-07 12:16 | -0.69202 | 73.15967 | 15 ft | 4 kts | 100° |
| 2026-05-07 12:17 | -0.69218 | 73.15993 | 15 ft | 4 kts | 144° |
| 2026-05-07 12:17 | -0.69246 | 73.15998 | 15 ft | 4 kts | 182° |
| 2026-05-07 12:17 | -0.69276 | 73.15996 | 15 ft | 4 kts | 186° |
| 2026-05-07 12:17 | -0.69309 | 73.15991 | 15 ft | 4 kts | 188° |
| 2026-05-07 12:18 | -0.69346 | 73.15989 | 15 ft | 7 kts | 172° |
| 2026-05-07 12:18 | -0.69393 | 73.16039 | 15 ft | 13 kts | 104° |
| 2026-05-07 12:18 | -0.69413 | 73.16157 | 15 ft | 20 kts | 98° |
| 2026-05-07 12:18 | -0.69434 | 73.16304 | 15 ft | 20 kts | 97° |
| 2026-05-07 12:19 | -0.69454 | 73.16446 | 15 ft | 20 kts | 98° |
| 2026-05-07 12:19 | -0.69489 | 73.16582 | 13 ft | 20 kts | 124° |
| 2026-05-07 12:19 | -0.69549 | 73.16671 | 12 ft | 11 kts | 107° |
| 2026-05-07 12:19 | -0.69539 | 73.16728 | 12 ft | 7 kts | 28° |
| 2026-05-07 12:20 | -0.69501 | 73.16715 | 12 ft | 6 kts | 294° |
| 2026-05-07 12:20 | -0.69492 | 73.16676 | 12 ft | 5 kts | 281° |
| 2026-05-07 12:20 | -0.69485 | 73.16634 | 12 ft | 11 kts | 277° |
| 2026-05-07 12:20 | -0.69462 | 73.16468 | 15 ft | 51 kts | 281° |
| 2026-05-07 12:21 | -0.69366 | 73.15878 | 15 ft | 119 kts | 279° |
| 2026-05-07 12:21 | -0.69211 | 73.14864 | 20 ft | 173 kts | 280° |
| 2026-05-07 12:21 | -0.69018 | 73.13666 | 660 ft | 173 kts | 281° |
| 2026-05-07 12:21 | -0.68860 | 73.12550 | 1556 ft | 165 kts | 271° |
| 2026-05-07 12:22 | -0.69413 | 73.11515 | 1998 ft | 191 kts | 218° |
| 2026-05-07 12:22 | -0.70836 | 73.11169 | 2211 ft | 232 kts | 184° |
| 2026-05-07 12:22 | -0.72526 | 73.11170 | 2725 ft | 249 kts | 184° |
| 2026-05-07 12:22 | -0.74220 | 73.11160 | 3660 ft | 244 kts | 189° |
| 2026-05-07 12:23 | -0.75942 | 73.10912 | 4226 ft | 255 kts | 195° |
| 2026-05-07 12:23 | -0.77702 | 73.10558 | 4888 ft | 263 kts | 197° |
| 2026-05-07 12:23 | -0.79483 | 73.10171 | 5870 ft | 258 kts | 198° |
| 2026-05-07 12:23 | -0.81204 | 73.09817 | 6767 ft | 257 kts | 195° |
| 2026-05-07 12:24 | -0.83028 | 73.09527 | 7333 ft | 272 kts | 193° |
| 2026-05-07 12:24 | -0.84957 | 73.09260 | 7954 ft | 284 kts | 192° |
| 2026-05-07 12:24 | -0.86910 | 73.09083 | 8817 ft | 286 kts | 188° |
| 2026-05-07 12:24 | -0.88911 | 73.08978 | 9619 ft | 291 kts | 188° |
| 2026-05-07 12:25 | -0.90948 | 73.08836 | 10403 ft | 296 kts | 189° |
| 2026-05-07 12:25 | -0.92998 | 73.08616 | 11242 ft | 298 kts | 192° |
| 2026-05-07 12:25 | -0.95073 | 73.08319 | 11998 ft | 304 kts | 193° |
| 2026-05-07 12:25 | -0.97188 | 73.08011 | 12752 ft | 310 kts | 192° |
| 2026-05-07 12:26 | -0.99332 | 73.07716 | 13580 ft | 312 kts | 191° |
| 2026-05-07 12:26 | -1.01483 | 73.07416 | 14418 ft | 314 kts | 192° |
| 2026-05-07 12:26 | -1.03629 | 73.07092 | 15092 ft | 321 kts | 191° |
| 2026-05-07 12:26 | -1.05927 | 73.06787 | 15451 ft | 341 kts | 189° |
| 2026-05-07 12:27 | -1.08359 | 73.06516 | 15905 ft | 356 kts | 188° |
| 2026-05-07 12:27 | -1.10878 | 73.06242 | 16312 ft | 371 kts | 188° |
| 2026-05-07 12:27 | -1.13492 | 73.05939 | 16664 ft | 386 kts | 189° |
| 2026-05-07 12:27 | -1.16187 | 73.05611 | 17303 ft | 392 kts | 189° |
| 2026-05-07 12:28 | -1.18915 | 73.05269 | 17939 ft | 397 kts | 189° |
| 2026-05-07 12:28 | -1.21703 | 73.04915 | 18565 ft | 403 kts | 189° |
| 2026-05-07 12:28 | -1.24480 | 73.04561 | 19219 ft | 407 kts | 189° |
| 2026-05-07 12:28 | -1.27304 | 73.04200 | 19806 ft | 412 kts | 189° |
| 2026-05-07 12:29 | -1.30192 | 73.03832 | 20422 ft | 416 kts | 189° |
| 2026-05-07 12:29 | -1.33049 | 73.03469 | 20997 ft | 421 kts | 189° |
| 2026-05-07 12:29 | -1.35985 | 73.03097 | 21557 ft | 425 kts | 189° |
| 2026-05-07 12:29 | -1.38947 | 73.02721 | 22122 ft | 429 kts | 188° |
| 2026-05-07 12:30 | -1.41937 | 73.02341 | 22706 ft | 432 kts | 188° |
| 2026-05-07 12:30 | -1.44938 | 73.01960 | 23313 ft | 434 kts | 188° |
| 2026-05-07 12:30 | -1.47953 | 73.01576 | 23845 ft | 438 kts | 188° |
| 2026-05-07 12:30 | -1.50973 | 73.01191 | 24374 ft | 442 kts | 188° |
| 2026-05-07 12:31 | -1.54059 | 73.00797 | 24928 ft | 444 kts | 188° |
| 2026-05-07 12:31 | -1.57123 | 73.00407 | 25456 ft | 447 kts | 188° |
| 2026-05-07 12:31 | -1.60216 | 73.00013 | 25973 ft | 449 kts | 188° |
| 2026-05-07 12:31 | -1.63352 | 72.99614 | 26498 ft | 452 kts | 188° |
| 2026-05-07 12:32 | -1.66463 | 72.99218 | 27028 ft | 453 kts | 188° |
| 2026-05-07 12:32 | -1.69616 | 72.98817 | 27521 ft | 455 kts | 188° |
| 2026-05-07 12:32 | -1.72764 | 72.98418 | 27988 ft | 458 kts | 188° |
| 2026-05-07 12:32 | -1.75912 | 72.98017 | 28446 ft | 458 kts | 188° |
| 2026-05-07 12:33 | -1.82352 | 72.97202 | 29080 ft | 467 kts | 187° |
| 2026-05-07 12:33 | -1.85561 | 72.96796 | 29411 ft | 471 kts | 187° |
| 2026-05-07 12:33 | -1.88837 | 72.96381 | 29833 ft | 472 kts | 187° |
| 2026-05-07 12:34 | -1.92120 | 72.95963 | 30226 ft | 474 kts | 187° |
| 2026-05-07 12:34 | -1.95399 | 72.95544 | 30773 ft | 472 kts | 186° |
| 2026-05-07 12:34 | -1.98653 | 72.95129 | 31289 ft | 471 kts | 186° |
| 2026-05-07 12:34 | -2.01903 | 72.94713 | 31799 ft | 469 kts | 186° |
| 2026-05-07 12:35 | -2.05153 | 72.94301 | 32327 ft | 467 kts | 186° |
| 2026-05-07 12:35 | -2.08335 | 72.93896 | 32937 ft | 463 kts | 186° |
| 2026-05-07 12:35 | -2.11516 | 72.93492 | 33545 ft | 459 kts | 185° |
| 2026-05-07 12:35 | -2.14707 | 72.93085 | 33914 ft | 461 kts | 185° |
| 2026-05-07 12:36 | -2.17935 | 72.92676 | 34050 ft | 467 kts | 185° |
| 2026-05-07 12:36 | -2.21169 | 72.92264 | 34300 ft | 471 kts | 185° |
| 2026-05-07 12:36 | -2.24420 | 72.91849 | 34926 ft | 466 kts | 185° |
| 2026-05-07 12:36 | -2.27592 | 72.91445 | 35600 ft | 460 kts | 185° |
| 2026-05-07 12:37 | -2.30783 | 72.91039 | 35803 ft | 464 kts | 185° |
| 2026-05-07 12:37 | -2.34018 | 72.90629 | 35816 ft | 465 kts | 185° |
| 2026-05-07 12:37 | -2.40416 | 72.89813 | 35815 ft | 458 kts | 185° |
| 2026-05-07 12:38 | -2.46734 | 72.89006 | 35814 ft | 458 kts | 185° |
| 2026-05-07 12:38 | -2.53102 | 72.88197 | 35815 ft | 461 kts | 185° |
| 2026-05-07 12:39 | -2.59488 | 72.87383 | 35814 ft | 460 kts | 185° |
| 2026-05-07 12:39 | -2.65836 | 72.86468 | 35822 ft | 461 kts | 186° |
| 2026-05-07 12:40 | -2.72208 | 72.85469 | 35821 ft | 459 kts | 186° |
| 2026-05-07 12:40 | -2.78536 | 72.84481 | 35823 ft | 459 kts | 186° |
| 2026-05-07 12:41 | -2.84837 | 72.83508 | 35823 ft | 460 kts | 186° |
| 2026-05-07 12:41 | -2.91201 | 72.82529 | 35821 ft | 460 kts | 186° |
| 2026-05-07 12:42 | -2.97573 | 72.81548 | 35823 ft | 460 kts | 186° |
| 2026-05-07 12:42 | -3.03925 | 72.80570 | 35822 ft | 460 kts | 186° |
| 2026-05-07 12:43 | -3.10242 | 72.79600 | 35822 ft | 459 kts | 186° |
| 2026-05-07 12:43 | -3.16559 | 72.78634 | 35822 ft | 458 kts | 186° |
| 2026-05-07 12:44 | -3.22898 | 72.77664 | 35823 ft | 459 kts | 187° |
| 2026-05-07 12:44 | -3.29236 | 72.76694 | 35822 ft | 459 kts | 187° |
| 2026-05-07 12:45 | -3.35570 | 72.75723 | 35822 ft | 459 kts | 186° |
| 2026-05-07 12:45 | -3.41885 | 72.74754 | 35822 ft | 459 kts | 187° |
| 2026-05-07 12:46 | -3.48220 | 72.73778 | 35821 ft | 459 kts | 186° |
| 2026-05-07 12:46 | -3.54568 | 72.72804 | 35822 ft | 459 kts | 187° |
| 2026-05-07 12:47 | -3.60884 | 72.71835 | 35818 ft | 457 kts | 187° |
| 2026-05-07 12:47 | -3.67192 | 72.70866 | 35812 ft | 457 kts | 187° |
| 2026-05-07 12:48 | -3.73459 | 72.69903 | 35806 ft | 457 kts | 187° |
| 2026-05-07 12:48 | -3.79757 | 72.68935 | 35802 ft | 457 kts | 187° |
| 2026-05-07 12:49 | -3.86055 | 72.67969 | 35802 ft | 457 kts | 187° |
| 2026-05-07 12:49 | -3.92387 | 72.66997 | 35801 ft | 456 kts | 187° |
| 2026-05-07 12:50 | -3.98678 | 72.66032 | 35802 ft | 456 kts | 187° |
| 2026-05-07 12:50 | -4.04949 | 72.65068 | 35801 ft | 455 kts | 187° |
| 2026-05-07 12:51 | -4.11252 | 72.64098 | 35804 ft | 456 kts | 187° |
| 2026-05-07 12:51 | -4.17513 | 72.63134 | 35804 ft | 456 kts | 187° |
| 2026-05-07 12:52 | -4.23836 | 72.62161 | 35814 ft | 457 kts | 187° |
| 2026-05-07 12:52 | -4.30118 | 72.61197 | 35821 ft | 457 kts | 187° |
| 2026-05-07 12:53 | -4.36430 | 72.60227 | 35822 ft | 456 kts | 187° |
| 2026-05-07 12:53 | -4.42711 | 72.59262 | 35822 ft | 457 kts | 187° |
| 2026-05-07 12:54 | -4.48993 | 72.58296 | 35822 ft | 456 kts | 187° |
| 2026-05-07 12:54 | -4.55304 | 72.57323 | 35821 ft | 456 kts | 187° |
| 2026-05-07 12:55 | -4.61600 | 72.56354 | 35821 ft | 457 kts | 187° |
| 2026-05-07 12:55 | -4.67889 | 72.55386 | 35821 ft | 457 kts | 187° |
| 2026-05-07 12:56 | -4.74200 | 72.54416 | 35822 ft | 458 kts | 187° |
| 2026-05-07 12:56 | -4.80521 | 72.53443 | 35821 ft | 458 kts | 187° |
| 2026-05-07 12:57 | -4.86845 | 72.52471 | 35822 ft | 459 kts | 187° |
| 2026-05-07 12:57 | -4.93208 | 72.51489 | 35822 ft | 460 kts | 187° |
| 2026-05-07 12:58 | -4.99554 | 72.50510 | 35821 ft | 460 kts | 187° |
| 2026-05-07 12:58 | -5.05897 | 72.49528 | 35822 ft | 461 kts | 187° |
| 2026-05-07 12:59 | -5.12238 | 72.48553 | 35822 ft | 461 kts | 187° |
| 2026-05-07 12:59 | -5.18623 | 72.47570 | 35823 ft | 462 kts | 187° |
| 2026-05-07 13:00 | -5.24987 | 72.46589 | 35828 ft | 462 kts | 187° |
| 2026-05-07 13:00 | -5.31356 | 72.45608 | 35830 ft | 463 kts | 187° |
| 2026-05-07 13:01 | -5.37749 | 72.44619 | 35836 ft | 463 kts | 186° |
| 2026-05-07 13:01 | -5.44118 | 72.43635 | 35819 ft | 463 kts | 187° |
| 2026-05-07 13:02 | -5.47316 | 72.43138 | 35440 ft | 462 kts | 187° |
| 2026-05-07 13:02 | -5.50504 | 72.42645 | 34741 ft | 464 kts | 187° |
| 2026-05-07 13:02 | -5.53709 | 72.42151 | 33961 ft | 467 kts | 187° |
| 2026-05-07 13:02 | -5.56923 | 72.41657 | 33147 ft | 470 kts | 187° |
| 2026-05-07 13:03 | -5.60170 | 72.41157 | 32322 ft | 471 kts | 188° |
| 2026-05-07 13:03 | -5.63407 | 72.40657 | 31740 ft | 467 kts | 187° |
| 2026-05-07 13:03 | -5.66589 | 72.40165 | 31199 ft | 463 kts | 188° |
| 2026-05-07 13:03 | -5.69772 | 72.39672 | 30601 ft | 460 kts | 188° |
| 2026-05-07 13:04 | -5.72951 | 72.39181 | 29979 ft | 457 kts | 188° |
| 2026-05-07 13:04 | -5.76058 | 72.38701 | 29371 ft | 454 kts | 188° |
| 2026-05-07 13:04 | -5.79203 | 72.38215 | 28749 ft | 452 kts | 188° |
| 2026-05-07 13:04 | -5.82282 | 72.37739 | 28149 ft | 450 kts | 188° |
| 2026-05-07 13:05 | -5.85399 | 72.37256 | 27538 ft | 449 kts | 188° |
| 2026-05-07 13:05 | -5.88457 | 72.36783 | 26923 ft | 447 kts | 188° |
| 2026-05-07 13:05 | -5.91528 | 72.36310 | 26301 ft | 446 kts | 188° |
| 2026-05-07 13:05 | -5.94605 | 72.35836 | 25677 ft | 444 kts | 188° |
| 2026-05-07 13:06 | -5.97665 | 72.35365 | 25055 ft | 442 kts | 188° |
| 2026-05-07 13:06 | -6.00689 | 72.34952 | 24433 ft | 440 kts | 185° |
| 2026-05-07 13:06 | -6.03756 | 72.34736 | 23804 ft | 437 kts | 181° |
| 2026-05-07 13:06 | -6.06793 | 72.34643 | 23191 ft | 434 kts | 180° |
| 2026-05-07 13:07 | -6.09792 | 72.34593 | 22582 ft | 432 kts | 179° |
| 2026-05-07 13:07 | -6.12804 | 72.34548 | 21973 ft | 430 kts | 179° |
| 2026-05-07 13:07 | -6.15794 | 72.34497 | 21366 ft | 427 kts | 180° |
| 2026-05-07 13:07 | -6.18763 | 72.34438 | 20760 ft | 425 kts | 180° |
| 2026-05-07 13:08 | -6.21726 | 72.34370 | 20149 ft | 422 kts | 180° |
| 2026-05-07 13:08 | -6.24627 | 72.34281 | 19621 ft | 418 kts | 182° |
| 2026-05-07 13:08 | -6.27509 | 72.34062 | 19358 ft | 406 kts | 185° |
| 2026-05-07 13:08 | -6.30296 | 72.33765 | 19033 ft | 397 kts | 185° |
| 2026-05-07 13:09 | -6.33014 | 72.33450 | 18582 ft | 392 kts | 186° |
| 2026-05-07 13:09 | -6.35713 | 72.33132 | 18066 ft | 389 kts | 186° |
| 2026-05-07 13:09 | -6.38427 | 72.32819 | 17437 ft | 389 kts | 186° |
| 2026-05-07 13:09 | -6.41124 | 72.32521 | 16815 ft | 389 kts | 185° |
| 2026-05-07 13:10 | -6.43786 | 72.32236 | 16330 ft | 385 kts | 185° |
| 2026-05-07 13:10 | -6.46469 | 72.31953 | 15790 ft | 383 kts | 185° |
| 2026-05-07 13:10 | -6.49110 | 72.31679 | 15231 ft | 381 kts | 185° |
| 2026-05-07 13:10 | -6.51757 | 72.31405 | 14661 ft | 380 kts | 185° |
| 2026-05-07 13:11 | -6.54366 | 72.31135 | 14094 ft | 378 kts | 185° |
| 2026-05-07 13:11 | -6.56991 | 72.30862 | 13523 ft | 376 kts | 185° |
| 2026-05-07 13:11 | -6.59593 | 72.30594 | 12955 ft | 374 kts | 185° |
| 2026-05-07 13:11 | -6.62165 | 72.30328 | 12393 ft | 372 kts | 185° |
| 2026-05-07 13:12 | -6.64741 | 72.30061 | 11829 ft | 369 kts | 185° |
| 2026-05-07 13:12 | -6.67287 | 72.29797 | 11271 ft | 367 kts | 185° |
| 2026-05-07 13:12 | -6.69839 | 72.29533 | 10706 ft | 364 kts | 185° |
| 2026-05-07 13:12 | -6.72341 | 72.29275 | 10321 ft | 356 kts | 185° |
| 2026-05-07 13:13 | -6.74755 | 72.29024 | 10182 ft | 341 kts | 185° |
| 2026-05-07 13:13 | -6.77068 | 72.28783 | 9999 ft | 329 kts | 185° |
| 2026-05-07 13:13 | -6.79348 | 72.28547 | 9561 ft | 327 kts | 185° |
| 2026-05-07 13:13 | -6.81596 | 72.28315 | 9126 ft | 324 kts | 185° |
| 2026-05-07 13:14 | -6.83835 | 72.28085 | 8712 ft | 321 kts | 185° |
| 2026-05-07 13:14 | -6.86063 | 72.27854 | 8304 ft | 317 kts | 185° |
| 2026-05-07 13:14 | -6.88240 | 72.27628 | 7904 ft | 314 kts | 185° |
| 2026-05-07 13:14 | -6.90393 | 72.27404 | 7506 ft | 310 kts | 185° |
| 2026-05-07 13:15 | -6.92561 | 72.27179 | 7105 ft | 307 kts | 185° |
| 2026-05-07 13:15 | -6.94664 | 72.26962 | 6714 ft | 303 kts | 185° |
| 2026-05-07 13:15 | -6.96763 | 72.26745 | 6328 ft | 299 kts | 185° |
| 2026-05-07 13:15 | -6.98825 | 72.26533 | 5946 ft | 295 kts | 185° |
| 2026-05-07 13:16 | -7.00846 | 72.26324 | 5568 ft | 292 kts | 185° |
| 2026-05-07 13:16 | -7.02857 | 72.26114 | 5190 ft | 288 kts | 185° |
| 2026-05-07 13:16 | -7.04851 | 72.25907 | 4818 ft | 284 kts | 185° |
| 2026-05-07 13:16 | -7.06809 | 72.25704 | 4453 ft | 281 kts | 185° |
| 2026-05-07 13:17 | -7.08752 | 72.25503 | 4091 ft | 276 kts | 184° |
| 2026-05-07 13:17 | -7.10647 | 72.25306 | 3734 ft | 271 kts | 184° |
| 2026-05-07 13:17 | -7.12513 | 72.25112 | 3427 ft | 265 kts | 184° |
| 2026-05-07 13:17 | -7.14304 | 72.24925 | 3327 ft | 250 kts | 184° |
| 2026-05-07 13:18 | -7.15972 | 72.24749 | 3257 ft | 233 kts | 184° |
| 2026-05-07 13:18 | -7.17549 | 72.24582 | 3177 ft | 219 kts | 184° |
| 2026-05-07 13:18 | -7.19011 | 72.24435 | 3107 ft | 206 kts | 181° |
| 2026-05-07 13:18 | -7.20382 | 72.24536 | 3052 ft | 189 kts | 162° |
| 2026-05-07 13:19 | -7.21463 | 72.25221 | 2901 ft | 179 kts | 131° |
| 2026-05-07 13:19 | -7.22143 | 72.26225 | 2749 ft | 172 kts | 122° |
| 2026-05-07 13:19 | -7.22767 | 72.27250 | 2596 ft | 169 kts | 123° |
| 2026-05-07 13:19 | -7.23390 | 72.28245 | 2450 ft | 169 kts | 123° |
| 2026-05-07 13:20 | -7.24016 | 72.29253 | 2305 ft | 169 kts | 123° |
| 2026-05-07 13:20 | -7.24638 | 72.30257 | 2159 ft | 168 kts | 123° |
| 2026-05-07 13:20 | -7.25253 | 72.31252 | 2017 ft | 167 kts | 123° |
| 2026-05-07 13:20 | -7.25861 | 72.32234 | 1882 ft | 165 kts | 123° |
| 2026-05-07 13:21 | -7.26459 | 72.33204 | 1695 ft | 159 kts | 123° |
| 2026-05-07 13:21 | -7.27039 | 72.34146 | 1433 ft | 158 kts | 123° |
| 2026-05-07 13:21 | -7.27614 | 72.35079 | 1209 ft | 153 kts | 123° |
| 2026-05-07 13:21 | -7.28158 | 72.35963 | 970 ft | 150 kts | 123° |
| 2026-05-07 13:22 | -7.28704 | 72.36849 | 745 ft | 146 kts | 123° |
| 2026-05-07 13:22 | -7.29241 | 72.37716 | 532 ft | 145 kts | 122° |
| 2026-05-07 13:22 | -7.29762 | 72.38576 | 329 ft | 144 kts | 121° |
| 2026-05-07 13:22 | -7.30297 | 72.39440 | 119 ft | 144 kts | 122° |
| 2026-05-07 13:23 | -7.30819 | 72.40274 | 12 ft | 128 kts | 119° |
| 2026-05-07 13:23 | -7.31136 | 72.40797 | 9 ft | 48 kts | 122° |
| 2026-05-07 13:23 | -7.31276 | 72.41022 | 9 ft | 24 kts | 121° |
| 2026-05-07 13:23 | -7.31313 | 72.41130 | 9 ft | 14 kts | 68° |
| 2026-05-07 13:24 | -7.31233 | 72.41184 | 9 ft | 13 kts | 358° |
| 2026-05-07 13:24 | -7.31172 | 72.41121 | 9 ft | 12 kts | 301° |
| 2026-05-07 13:24 | -7.31127 | 72.41045 | 9 ft | 12 kts | 301° |
| 2026-05-07 13:24 | -7.31077 | 72.40963 | 9 ft | 16 kts | 302° |
| 2026-05-07 13:25 | -7.31001 | 72.40843 | 9 ft | 23 kts | 302° |
| 2026-05-07 13:25 | -7.30903 | 72.40683 | 11 ft | 29 kts | 301° |
| 2026-05-07 13:25 | -7.30800 | 72.40516 | 12 ft | 27 kts | 302° |
| 2026-05-07 13:25 | -7.30699 | 72.40353 | 12 ft | 26 kts | 301° |
| 2026-05-07 13:26 | -7.30602 | 72.40196 | 12 ft | 26 kts | 302° |
| 2026-05-07 13:26 | -7.30509 | 72.40044 | 12 ft | 23 kts | 301° |
| 2026-05-07 13:26 | -7.30396 | 72.39946 | 13 ft | 21 kts | 350° |
| 2026-05-07 13:26 | -7.30291 | 72.39876 | 16 ft | 18 kts | 302° |
| 2026-05-07 13:27 | -7.30227 | 72.39774 | 17 ft | 16 kts | 302° |
| 2026-05-07 13:27 | -7.30169 | 72.39678 | 18 ft | 15 kts | 301° |
| 2026-05-07 13:27 | -7.30134 | 72.39625 | 19 ft | 7 kts | 302° |
| 2026-05-07 13:27 | -7.30112 | 72.39583 | 19 ft | 6 kts | 297° |
| 2026-05-07 13:28 | -7.30088 | 72.39552 | 19 ft | 4 kts | 341° |
| 2026-05-07 13:28 | -7.30066 | 72.39553 | 20 ft | 2 kts | 16° |
| 2026-05-07 13:28 | -7.30058 | 72.39557 | 20 ft | 0 kts | 27° |